sensor_id;sensor_type;location;lat;lon;timestamp;temperature;humidity
36790;DHT22;22740;52.182;8.780;2024-03-25T00:04:55;5.10;99.90
36790;DHT22;22740;52.182;8.780;2024-03-25T00:10:56;5.10;99.90
36790;DHT22;22740;52.182;8.780;2024-03-25T00:16:57;5.00;99.90
36790;DHT22;22740;52.182;8.780;2024-03-25T00:22:58;5.10;99.90
36790;DHT22;22740;52.182;8.780;2024-03-25T00:28:59;5.10;99.90
36790;DHT22;22740;52.182;8.780;2024-03-25T00:35:01;5.10;99.90
36790;DHT22;22740;52.182;8.780;2024-03-25T00:41:01;5.00;99.90
36790;DHT22;22740;52.182;8.780;2024-03-25T00:47:03;5.00;99.90
36790;DHT22;22740;52.182;8.780;2024-03-25T00:53:04;5.00;99.90
36790;DHT22;22740;52.182;8.780;2024-03-25T00:59:05;5.00;99.90
36790;DHT22;22740;52.182;8.780;2024-03-25T01:05:07;5.10;99.90
36790;DHT22;22740;52.182;8.780;2024-03-25T01:11:08;5.00;99.90
36790;DHT22;22740;52.182;8.780;2024-03-25T01:17:09;5.10;99.90
36790;DHT22;22740;52.182;8.780;2024-03-25T01:23:10;5.10;99.90
36790;DHT22;22740;52.182;8.780;2024-03-25T01:29:11;5.10;99.90
36790;DHT22;22740;52.182;8.780;2024-03-25T01:35:12;5.20;99.90
36790;DHT22;22740;52.182;8.780;2024-03-25T01:41:13;5.30;99.90
36790;DHT22;22740;52.182;8.780;2024-03-25T01:47:17;5.20;99.90
36790;DHT22;22740;52.182;8.780;2024-03-25T01:53:18;5.20;99.90
36790;DHT22;22740;52.182;8.780;2024-03-25T01:59:20;5.20;99.90
36790;DHT22;22740;52.182;8.780;2024-03-25T02:05:21;5.20;99.90
36790;DHT22;22740;52.182;8.780;2024-03-25T02:11:22;5.20;99.90
36790;DHT22;22740;52.182;8.780;2024-03-25T02:17:24;5.20;99.90
36790;DHT22;22740;52.182;8.780;2024-03-25T02:23:28;5.30;99.90
36790;DHT22;22740;52.182;8.780;2024-03-25T02:29:33;5.30;99.90
36790;DHT22;22740;52.182;8.780;2024-03-25T02:35:35;5.30;99.90
36790;DHT22;22740;52.182;8.780;2024-03-25T02:41:36;5.30;99.90
36790;DHT22;22740;52.182;8.780;2024-03-25T02:47:37;5.30;99.90
36790;DHT22;22740;52.182;8.780;2024-03-25T02:53:38;5.30;99.90
36790;DHT22;22740;52.182;8.780;2024-03-25T02:59:39;5.30;99.90
36790;DHT22;22740;52.182;8.780;2024-03-25T03:05:41;5.30;99.90
36790;DHT22;22740;52.182;8.780;2024-03-25T03:11:42;5.20;99.90
36790;DHT22;22740;52.182;8.780;2024-03-25T03:17:43;5.20;99.90
36790;DHT22;22740;52.182;8.780;2024-03-25T03:23:44;5.30;99.90
36790;DHT22;22740;52.182;8.780;2024-03-25T03:29:45;5.30;99.90
36790;DHT22;22740;52.182;8.780;2024-03-25T03:35:46;5.40;99.90
36790;DHT22;22740;52.182;8.780;2024-03-25T03:41:46;5.30;99.90
36790;DHT22;22740;52.182;8.780;2024-03-25T03:47:47;5.20;99.90
36790;DHT22;22740;52.182;8.780;2024-03-25T03:53:48;5.10;99.90
36790;DHT22;22740;52.182;8.780;2024-03-25T03:59:49;5.20;99.90
36790;DHT22;22740;52.182;8.780;2024-03-25T04:05:50;5.10;99.90
36790;DHT22;22740;52.182;8.780;2024-03-25T04:11:51;5.20;99.90
36790;DHT22;22740;52.182;8.780;2024-03-25T04:17:52;5.20;99.90
36790;DHT22;22740;52.182;8.780;2024-03-25T04:23:54;5.20;99.90
36790;DHT22;22740;52.182;8.780;2024-03-25T04:29:55;5.10;99.90
36790;DHT22;22740;52.182;8.780;2024-03-25T04:35:56;5.00;99.90
36790;DHT22;22740;52.182;8.780;2024-03-25T04:41:57;5.20;99.90
36790;DHT22;22740;52.182;8.780;2024-03-25T04:47:58;5.10;99.90
36790;DHT22;22740;52.182;8.780;2024-03-25T04:53:58;5.00;99.90
36790;DHT22;22740;52.182;8.780;2024-03-25T04:59:59;4.90;99.90
36790;DHT22;22740;52.182;8.780;2024-03-25T05:06:00;4.90;99.90
36790;DHT22;22740;52.182;8.780;2024-03-25T05:12:01;4.90;99.90
36790;DHT22;22740;52.182;8.780;2024-03-25T05:18:02;5.00;99.90
36790;DHT22;22740;52.182;8.780;2024-03-25T05:24:03;5.10;99.90
36790;DHT22;22740;52.182;8.780;2024-03-25T05:30:04;5.10;99.90
36790;DHT22;22740;52.182;8.780;2024-03-25T05:36:06;5.00;99.90
36790;DHT22;22740;52.182;8.780;2024-03-25T05:42:06;4.90;99.90
36790;DHT22;22740;52.182;8.780;2024-03-25T05:48:07;4.90;99.90
36790;DHT22;22740;52.182;8.780;2024-03-25T05:54:08;5.00;99.90
36790;DHT22;22740;52.182;8.780;2024-03-25T06:00:10;4.90;99.90
36790;DHT22;22740;52.182;8.780;2024-03-25T06:06:12;4.90;99.90
36790;DHT22;22740;52.182;8.780;2024-03-25T06:12:13;4.90;99.90
36790;DHT22;22740;52.182;8.780;2024-03-25T06:18:14;5.00;99.90
36790;DHT22;22740;52.182;8.780;2024-03-25T06:24:15;5.00;99.90
36790;DHT22;22740;52.182;8.780;2024-03-25T06:30:16;5.10;99.90
36790;DHT22;22740;52.182;8.780;2024-03-25T06:36:35;5.20;99.90
36790;DHT22;22740;52.182;8.780;2024-03-25T06:42:36;5.20;99.90
36790;DHT22;22740;52.182;8.780;2024-03-25T06:48:37;5.30;99.90
36790;DHT22;22740;52.182;8.780;2024-03-25T06:54:38;5.40;99.90
36790;DHT22;22740;52.182;8.780;2024-03-25T07:00:39;5.30;99.90
36790;DHT22;22740;52.182;8.780;2024-03-25T07:06:40;5.40;99.90
36790;DHT22;22740;52.182;8.780;2024-03-25T07:12:41;5.50;99.90
36790;DHT22;22740;52.182;8.780;2024-03-25T07:18:42;5.50;99.90
36790;DHT22;22740;52.182;8.780;2024-03-25T07:24:43;5.50;99.90
36790;DHT22;22740;52.182;8.780;2024-03-25T07:30:44;5.50;99.90
36790;DHT22;22740;52.182;8.780;2024-03-25T07:36:45;5.60;99.90
36790;DHT22;22740;52.182;8.780;2024-03-25T07:42:46;5.90;99.90
36790;DHT22;22740;52.182;8.780;2024-03-25T07:48:47;5.80;99.90
36790;DHT22;22740;52.182;8.780;2024-03-25T07:54:48;5.90;99.90
36790;DHT22;22740;52.182;8.780;2024-03-25T08:00:48;5.90;99.90
36790;DHT22;22740;52.182;8.780;2024-03-25T08:06:49;6.10;99.90
36790;DHT22;22740;52.182;8.780;2024-03-25T08:12:50;6.30;99.90
36790;DHT22;22740;52.182;8.780;2024-03-25T08:18:51;6.40;99.90
36790;DHT22;22740;52.182;8.780;2024-03-25T08:24:52;6.60;99.90
36790;DHT22;22740;52.182;8.780;2024-03-25T08:30:53;6.60;99.90
36790;DHT22;22740;52.182;8.780;2024-03-25T08:36:54;6.80;99.90
36790;DHT22;22740;52.182;8.780;2024-03-25T08:42:55;7.00;99.90
36790;DHT22;22740;52.182;8.780;2024-03-25T08:48:56;7.10;99.90
36790;DHT22;22740;52.182;8.780;2024-03-25T08:54:57;6.90;99.90
36790;DHT22;22740;52.182;8.780;2024-03-25T09:00:58;7.10;99.90
36790;DHT22;22740;52.182;8.780;2024-03-25T09:06:59;7.40;99.90
36790;DHT22;22740;52.182;8.780;2024-03-25T09:13:00;7.20;99.90
36790;DHT22;22740;52.182;8.780;2024-03-25T09:19:01;7.20;99.90
36790;DHT22;22740;52.182;8.780;2024-03-25T09:25:02;7.40;99.90
36790;DHT22;22740;52.182;8.780;2024-03-25T09:31:03;7.40;99.90
36790;DHT22;22740;52.182;8.780;2024-03-25T09:37:06;7.60;99.90
36790;DHT22;22740;52.182;8.780;2024-03-25T09:49:25;8.10;99.90
36790;DHT22;22740;52.182;8.780;2024-03-25T09:55:27;8.30;99.90
36790;DHT22;22740;52.182;8.780;2024-03-25T10:01:28;8.50;99.90
36790;DHT22;22740;52.182;8.780;2024-03-25T10:07:29;8.50;99.90
36790;DHT22;22740;52.182;8.780;2024-03-25T10:13:30;8.10;99.90
36790;DHT22;22740;52.182;8.780;2024-03-25T10:19:32;8.20;99.90
36790;DHT22;22740;52.182;8.780;2024-03-25T10:25:34;7.70;99.90
36790;DHT22;22740;52.182;8.780;2024-03-25T10:31:34;7.30;99.90
36790;DHT22;22740;52.182;8.780;2024-03-25T10:37:35;6.60;99.90
36790;DHT22;22740;52.182;8.780;2024-03-25T10:43:37;6.80;99.90
36790;DHT22;22740;52.182;8.780;2024-03-25T10:49:58;7.00;99.90
36790;DHT22;22740;52.182;8.780;2024-03-25T10:55:59;7.40;99.90
36790;DHT22;22740;52.182;8.780;2024-03-25T11:02:02;7.90;99.90
36790;DHT22;22740;52.182;8.780;2024-03-25T11:08:16;8.30;99.90
36790;DHT22;22740;52.182;8.780;2024-03-25T11:14:17;8.40;99.90
36790;DHT22;22740;52.182;8.780;2024-03-25T11:20:18;8.50;99.90
36790;DHT22;22740;52.182;8.780;2024-03-25T11:26:21;8.40;99.90
36790;DHT22;22740;52.182;8.780;2024-03-25T11:32:24;8.30;99.90
36790;DHT22;22740;52.182;8.780;2024-03-25T11:38:25;8.40;99.90
36790;DHT22;22740;52.182;8.780;2024-03-25T11:44:28;8.70;99.90
36790;DHT22;22740;52.182;8.780;2024-03-25T11:50:29;8.30;99.90
36790;DHT22;22740;52.182;8.780;2024-03-25T11:56:31;7.90;99.90
36790;DHT22;22740;52.182;8.780;2024-03-25T12:02:32;8.20;99.90
36790;DHT22;22740;52.182;8.780;2024-03-25T12:08:33;9.10;99.90
36790;DHT22;22740;52.182;8.780;2024-03-25T12:14:44;9.90;99.90
36790;DHT22;22740;52.182;8.780;2024-03-25T12:20:45;10.50;99.90
36790;DHT22;22740;52.182;8.780;2024-03-25T12:26:46;10.40;99.90
36790;DHT22;22740;52.182;8.780;2024-03-25T12:32:50;10.40;99.90
36790;DHT22;22740;52.182;8.780;2024-03-25T12:38:55;9.70;99.90
36790;DHT22;22740;52.182;8.780;2024-03-25T12:44:56;9.50;99.90
36790;DHT22;22740;52.182;8.780;2024-03-25T12:50:57;8.80;99.90
36790;DHT22;22740;52.182;8.780;2024-03-25T12:56:58;8.40;99.90
36790;DHT22;22740;52.182;8.780;2024-03-25T13:02:59;8.50;99.90
36790;DHT22;22740;52.182;8.780;2024-03-25T13:09:03;8.70;99.90
36790;DHT22;22740;52.182;8.780;2024-03-25T13:15:04;8.80;99.90
36790;DHT22;22740;52.182;8.780;2024-03-25T13:21:05;9.00;99.90
36790;DHT22;22740;52.182;8.780;2024-03-25T13:27:05;9.30;99.90
36790;DHT22;22740;52.182;8.780;2024-03-25T13:33:06;9.30;99.90
36790;DHT22;22740;52.182;8.780;2024-03-25T13:39:07;9.20;99.90
36790;DHT22;22740;52.182;8.780;2024-03-25T13:45:09;9.30;99.90
36790;DHT22;22740;52.182;8.780;2024-03-25T13:51:10;9.70;99.90
36790;DHT22;22740;52.182;8.780;2024-03-25T13:57:11;10.40;99.90
36790;DHT22;22740;52.182;8.780;2024-03-25T14:03:12;10.40;99.90
36790;DHT22;22740;52.182;8.780;2024-03-25T14:09:26;10.20;99.90
36790;DHT22;22740;52.182;8.780;2024-03-25T14:15:27;10.80;99.90
36790;DHT22;22740;52.182;8.780;2024-03-25T14:21:28;11.00;99.90
36790;DHT22;22740;52.182;8.780;2024-03-25T14:27:29;10.90;99.90
36790;DHT22;22740;52.182;8.780;2024-03-25T14:33:30;11.00;99.90
36790;DHT22;22740;52.182;8.780;2024-03-25T14:39:32;10.80;99.90
36790;DHT22;22740;52.182;8.780;2024-03-25T14:45:33;10.80;99.90
36790;DHT22;22740;52.182;8.780;2024-03-25T14:51:34;10.40;99.90
36790;DHT22;22740;52.182;8.780;2024-03-25T14:57:36;10.30;99.90
36790;DHT22;22740;52.182;8.780;2024-03-25T15:03:37;10.10;99.90
36790;DHT22;22740;52.182;8.780;2024-03-25T15:09:39;10.20;99.90
36790;DHT22;22740;52.182;8.780;2024-03-25T15:15:40;10.40;99.90
36790;DHT22;22740;52.182;8.780;2024-03-25T15:21:43;10.70;99.90
36790;DHT22;22740;52.182;8.780;2024-03-25T15:27:44;10.30;99.90
36790;DHT22;22740;52.182;8.780;2024-03-25T15:33:45;10.20;99.90
36790;DHT22;22740;52.182;8.780;2024-03-25T15:39:46;10.30;99.90
36790;DHT22;22740;52.182;8.780;2024-03-25T15:45:57;10.50;99.90
36790;DHT22;22740;52.182;8.780;2024-03-25T15:51:58;10.80;1.00
36790;DHT22;22740;52.182;8.780;2024-03-25T15:58:01;10.50;56.50
36790;DHT22;22740;52.182;8.780;2024-03-25T16:04:02;10.20;1.00
36790;DHT22;22740;52.182;8.780;2024-03-25T16:10:03;10.30;99.90
36790;DHT22;22740;52.182;8.780;2024-03-25T16:16:05;10.70;99.90
36790;DHT22;22740;52.182;8.780;2024-03-25T16:22:06;10.60;99.90
36790;DHT22;22740;52.182;8.780;2024-03-25T16:28:07;10.10;1.00
36790;DHT22;22740;52.182;8.780;2024-03-25T16:34:08;9.60;99.90
36790;DHT22;22740;52.182;8.780;2024-03-25T16:40:09;9.20;1.00
36790;DHT22;22740;52.182;8.780;2024-03-25T16:46:10;9.20;1.00
36790;DHT22;22740;52.182;8.780;2024-03-25T16:52:11;9.30;99.90
36790;DHT22;22740;52.182;8.780;2024-03-25T16:58:12;8.80;99.90
36790;DHT22;22740;52.182;8.780;2024-03-25T17:04:13;8.80;99.90
36790;DHT22;22740;52.182;8.780;2024-03-25T17:10:14;8.60;1.00
36790;DHT22;22740;52.182;8.780;2024-03-25T17:16:15;8.30;1.00
36790;DHT22;22740;52.182;8.780;2024-03-25T17:22:16;8.00;11.00
36790;DHT22;22740;52.182;8.780;2024-03-25T17:28:17;7.70;52.00
36790;DHT22;22740;52.182;8.780;2024-03-25T17:34:18;7.50;99.90
36790;DHT22;22740;52.182;8.780;2024-03-25T17:40:19;7.30;99.90
36790;DHT22;22740;52.182;8.780;2024-03-25T17:46:20;7.00;99.90
36790;DHT22;22740;52.182;8.780;2024-03-25T17:52:21;6.70;99.90
36790;DHT22;22740;52.182;8.780;2024-03-25T17:58:22;6.50;99.90
36790;DHT22;22740;52.182;8.780;2024-03-25T18:04:23;6.30;99.90
36790;DHT22;22740;52.182;8.780;2024-03-25T18:10:24;6.00;99.90
36790;DHT22;22740;52.182;8.780;2024-03-25T18:16:25;5.90;99.90
36790;DHT22;22740;52.182;8.780;2024-03-25T18:22:26;5.70;99.90
36790;DHT22;22740;52.182;8.780;2024-03-25T18:28:28;5.50;99.90
36790;DHT22;22740;52.182;8.780;2024-03-25T18:34:30;5.30;99.90
36790;DHT22;22740;52.182;8.780;2024-03-25T18:40:31;5.20;99.90
36790;DHT22;22740;52.182;8.780;2024-03-25T18:46:32;5.10;99.90
36790;DHT22;22740;52.182;8.780;2024-03-25T18:52:33;5.00;99.90
36790;DHT22;22740;52.182;8.780;2024-03-25T18:58:34;5.00;99.90
36790;DHT22;22740;52.182;8.780;2024-03-25T19:04:35;4.70;99.90
36790;DHT22;22740;52.182;8.780;2024-03-25T19:10:36;4.70;99.90
36790;DHT22;22740;52.182;8.780;2024-03-25T19:16:37;4.50;99.90
36790;DHT22;22740;52.182;8.780;2024-03-25T19:22:38;4.50;99.90
36790;DHT22;22740;52.182;8.780;2024-03-25T19:28:39;4.50;99.90
36790;DHT22;22740;52.182;8.780;2024-03-25T19:34:41;4.40;99.90
36790;DHT22;22740;52.182;8.780;2024-03-25T19:40:42;4.20;99.90
36790;DHT22;22740;52.182;8.780;2024-03-25T19:46:43;4.10;99.90
36790;DHT22;22740;52.182;8.780;2024-03-25T19:52:43;4.20;99.90
36790;DHT22;22740;52.182;8.780;2024-03-25T19:58:44;4.10;99.90
36790;DHT22;22740;52.182;8.780;2024-03-25T20:04:45;4.10;99.90
36790;DHT22;22740;52.182;8.780;2024-03-25T20:10:46;4.30;99.90
36790;DHT22;22740;52.182;8.780;2024-03-25T20:16:47;4.50;99.90
36790;DHT22;22740;52.182;8.780;2024-03-25T20:22:48;4.60;99.90
36790;DHT22;22740;52.182;8.780;2024-03-25T20:28:49;4.40;99.90
36790;DHT22;22740;52.182;8.780;2024-03-25T20:34:50;4.40;99.90
36790;DHT22;22740;52.182;8.780;2024-03-25T20:40:51;4.60;99.90
36790;DHT22;22740;52.182;8.780;2024-03-25T20:46:52;4.60;99.90
36790;DHT22;22740;52.182;8.780;2024-03-25T20:52:53;4.80;99.90
36790;DHT22;22740;52.182;8.780;2024-03-25T20:58:54;4.60;99.90
36790;DHT22;22740;52.182;8.780;2024-03-25T21:04:55;4.50;99.90
36790;DHT22;22740;52.182;8.780;2024-03-25T21:10:56;4.50;99.90
36790;DHT22;22740;52.182;8.780;2024-03-25T21:16:56;4.30;99.90
36790;DHT22;22740;52.182;8.780;2024-03-25T21:22:57;4.30;99.90
36790;DHT22;22740;52.182;8.780;2024-03-25T21:28:58;4.30;99.90
36790;DHT22;22740;52.182;8.780;2024-03-25T21:34:59;4.20;99.90
36790;DHT22;22740;52.182;8.780;2024-03-25T21:41:00;4.00;99.90
36790;DHT22;22740;52.182;8.780;2024-03-25T21:47:01;3.90;99.90
36790;DHT22;22740;52.182;8.780;2024-03-25T21:53:02;3.90;99.90
36790;DHT22;22740;52.182;8.780;2024-03-25T21:59:03;3.90;99.90
36790;DHT22;22740;52.182;8.780;2024-03-25T22:05:04;3.90;99.90
36790;DHT22;22740;52.182;8.780;2024-03-25T22:11:05;4.20;99.90
36790;DHT22;22740;52.182;8.780;2024-03-25T22:17:06;4.10;99.90
36790;DHT22;22740;52.182;8.780;2024-03-25T22:23:07;4.10;99.90
36790;DHT22;22740;52.182;8.780;2024-03-25T22:29:08;4.10;99.90
36790;DHT22;22740;52.182;8.780;2024-03-25T22:35:09;3.90;99.90
36790;DHT22;22740;52.182;8.780;2024-03-25T22:41:09;3.90;99.90
36790;DHT22;22740;52.182;8.780;2024-03-25T22:47:10;3.90;99.90
36790;DHT22;22740;52.182;8.780;2024-03-25T22:53:11;3.80;99.90
36790;DHT22;22740;52.182;8.780;2024-03-25T22:59:12;3.90;99.90
36790;DHT22;22740;52.182;8.780;2024-03-25T23:05:13;3.90;99.90
36790;DHT22;22740;52.182;8.780;2024-03-25T23:11:16;3.70;99.90
36790;DHT22;22740;52.182;8.780;2024-03-25T23:17:18;3.70;99.90
36790;DHT22;22740;52.182;8.780;2024-03-25T23:23:19;3.80;99.90
36790;DHT22;22740;52.182;8.780;2024-03-25T23:29:20;3.70;99.90
36790;DHT22;22740;52.182;8.780;2024-03-25T23:35:20;3.60;99.90
36790;DHT22;22740;52.182;8.780;2024-03-25T23:41:21;3.70;99.90
36790;DHT22;22740;52.182;8.780;2024-03-25T23:47:22;3.60;99.90
36790;DHT22;22740;52.182;8.780;2024-03-25T23:53:23;3.60;99.90
36790;DHT22;22740;52.182;8.780;2024-03-25T23:59:24;3.70;99.90
